Toyofujimaru No.2 — 7JDI — position and weather

sailwx.info

Track history (hours):
 
Tides and Currents Weather Stations Pressure Air Temp Water Temp Dewpoint Dewpoint Depression Visibility Wind Speed Wind Dir Waves Ship Positions

Toyofujimaru No.2

Last reported at 2015-Jan-27 10:32 UTC. Time now 2015-Jan-27 20:59 UTC.
Position N 34°52' E 140°01'.

Length 165 m; draft 6.4 m.

Type: Cargo ship. MMSI: 432667000.

Date/timePositionNaut miles runAvg speedWind from/ knotsBaromVisibWave heightAir tempDewpointWater temp
2015-Jan-27 10:32N 34°52' E 140°01'1717.4
2015-Jan-27 09:33N 34°59' E 139°42'1717.2
2015-Jan-27 08:33N 35°15' E 139°46'1313.4
2015-Jan-27 07:34N 35°28' E 139°47'2 2.2
2015-Jan-27 06:33N 35°30' E 139°46'0 0.0
2015-Jan-27 05:33N 35°30' E 139°46'0 0.0
2015-Jan-27 04:33N 35°30' E 139°46'0 0.0
2015-Jan-27 03:33N 35°30' E 139°46'0 0.0
2015-Jan-27 02:33N 35°30' E 139°46'9 9.0
2015-Jan-27 01:33N 35°23' E 139°39'0 0.0
2015-Jan-27 00:32N 35°23' E 139°39'0 0.0
2015-Jan-26 23:32N 35°23' E 139°39'0 0.0
2015-Jan-26 22:32N 35°23' E 139°39'0 0.0
2015-Jan-26 21:32N 35°23' E 139°39'5 5.6
2015-Jan-26 20:34N 35°19' E 139°43'1313.3
2015-Jan-26 19:33N 35°06' E 139°44'2117.5
2015-Jan-26 18:23N 34°52' E 139°25'8 0.3
2015-Jan-25 12:28N 34°47' E 139°33'1718.2
2015-Jan-25 11:33N 35°02' E 139°42'1515.0
2015-Jan-25 10:33N 35°17' E 139°45'9 8.6
2015-Jan-25 09:33N 35°23' E 139°39'0 0.0
2015-Jan-25 08:33N 35°23' E 139°39'0 0.0
2015-Jan-25 07:33N 35°23' E 139°39'0 0.0
2015-Jan-25 06:33N 35°23' E 139°39'0 0.0
2015-Jan-25 05:33N 35°23' E 139°39'0 0.0
2015-Jan-25 04:33N 35°23' E 139°39'9 8.9
2015-Jan-25 03:34N 35°17' E 139°46'1414.3
2015-Jan-25 02:33N 35°02' E 139°45'1510.1
2015-Jan-25 01:06N 34°53' E 139°59'813.4
2015-Jan-25 00:29N 34°57' E 140°08'1313.5
2015-Jan-24 23:31N 35°04' E 140°22'11 0.3
2015-Jan-23 12:24N 34°57' E 140°12'1919.9
2015-Jan-23 11:28N 34°52' E 139°50'1618.0
2015-Jan-23 10:33N 35°08' E 139°45'1313.3
2015-Jan-23 09:34N 35°21' E 139°42'10 9.5
2015-Jan-23 08:34N 35°30' E 139°46'0 0.0
2015-Jan-23 07:32N 35°30' E 139°46'0 0.0
2015-Jan-23 06:32N 35°30' E 139°46'0 0.0
2015-Jan-23 05:26N 35°30' E 139°46'0 0.0
2015-Jan-23 04:32N 35°30' E 139°46'0 0.1
2015-Jan-23 03:33N 35°30' E 139°46'8 8.3
2015-Jan-23 02:33N 35°23' E 139°40'1 1.2
2015-Jan-23 01:30N 35°23' E 139°39'0 0.0
2015-Jan-23 00:33N 35°23' E 139°39'0 0.0
2015-Jan-22 23:33N 35°23' E 139°39'0 0.0
2015-Jan-22 22:33N 35°23' E 139°39'2 1.6
2015-Jan-22 21:33N 35°23' E 139°41'1212.5
2015-Jan-22 20:33N 35°11' E 139°46'1817.7
2015-Jan-22 19:33N 34°57' E 139°33'7 0.2
2015-Jan-21 11:34N 34°52' E 139°40'1817.9
2015-Jan-21 10:33N 35°10' E 139°46'1312.9
2015-Jan-21 09:33N 35°22' E 139°41'2 2.3
2015-Jan-21 08:32N 35°23' E 139°39'0 0.0
2015-Jan-21 07:32N 35°23' E 139°39'0 0.0
2015-Jan-21 06:32N 35°23' E 139°39'0 0.0
2015-Jan-21 05:32N 35°23' E 139°39'0 0.0
2015-Jan-21 04:32N 35°23' E 139°39'0 0.0
2015-Jan-21 03:32N 35°23' E 139°39'1 0.8
2015-Jan-21 02:34N 35°24' E 139°40'1212.4
2015-Jan-21 01:33N 35°12' E 139°47'1414.2
2015-Jan-21 00:34N 34°59' E 139°43'1312.6
2015-Jan-20 23:33N 34°49' E 139°53'3114.6
2015-Jan-20 21:28N 35°04' E 140°25'22 0.7
2015-Jan-19 11:33N 34°53' E 140°02'1616.4
2015-Jan-19 10:34N 34°57' E 139°43'1717.2
2015-Jan-19 09:33N 35°14' E 139°46'1313.1
2015-Jan-19 08:34N 35°27' E 139°46'3 3.3
2015-Jan-19 07:33N 35°30' E 139°46'0 0.0
2015-Jan-19 06:33N 35°30' E 139°46'0 0.0
2015-Jan-19 05:33N 35°30' E 139°46'0 0.0
2015-Jan-19 04:33N 35°30' E 139°46'0 0.0
2015-Jan-19 03:33N 35°30' E 139°46'0 0.0
2015-Jan-19 02:33N 35°30' E 139°46'7 7.1
2015-Jan-19 01:33N 35°24' E 139°42'2 2.3
2015-Jan-19 00:31N 35°23' E 139°39'0 0.0
2015-Jan-18 23:31N 35°23' E 139°39'0 0.0
2015-Jan-18 22:31N 35°23' E 139°39'4 4.6
2015-Jan-18 21:33N 35°20' E 139°43'1313.4
2015-Jan-18 20:33N 35°07' E 139°45'1818.1
2015-Jan-18 19:33N 34°51' E 139°36'12 0.4
2015-Jan-17 12:33N 34°40' E 139°41'1515.4
2015-Jan-17 11:33N 34°55' E 139°41'1817.6
2015-Jan-17 10:33N 35°12' E 139°46'  
Track history (hours):
 
Tides and Currents Weather Stations Pressure Air Temp Water Temp Dewpoint Dewpoint Depression Visibility Wind Speed Wind Dir Waves Ship Positions

Toyofujimaru No.2

Last reported at 2015-Jan-27 10:32 UTC. Time now 2015-Jan-27 20:59 UTC.
Position N 34°52' E 140°01'.

Length 165 m; draft 6.4 m.

Type: Cargo ship. MMSI: 432667000.

Date/timePositionNaut miles runAvg speedWind from/ knotsBaromVisibWave heightAir tempDewpointWater temp
2015-Jan-27 10:32N 34°52' E 140°01'1717.4
2015-Jan-27 09:33N 34°59' E 139°42'1717.2
2015-Jan-27 08:33N 35°15' E 139°46'1313.4
2015-Jan-27 07:34N 35°28' E 139°47'2 2.2
2015-Jan-27 06:33N 35°30' E 139°46'0 0.0
2015-Jan-27 05:33N 35°30' E 139°46'0 0.0
2015-Jan-27 04:33N 35°30' E 139°46'0 0.0
2015-Jan-27 03:33N 35°30' E 139°46'0 0.0
2015-Jan-27 02:33N 35°30' E 139°46'9 9.0
2015-Jan-27 01:33N 35°23' E 139°39'0 0.0
2015-Jan-27 00:32N 35°23' E 139°39'0 0.0
2015-Jan-26 23:32N 35°23' E 139°39'0 0.0
2015-Jan-26 22:32N 35°23' E 139°39'0 0.0
2015-Jan-26 21:32N 35°23' E 139°39'5 5.6
2015-Jan-26 20:34N 35°19' E 139°43'1313.3
2015-Jan-26 19:33N 35°06' E 139°44'2117.5
2015-Jan-26 18:23N 34°52' E 139°25'8 0.3
2015-Jan-25 12:28N 34°47' E 139°33'1718.2
2015-Jan-25 11:33N 35°02' E 139°42'1515.0
2015-Jan-25 10:33N 35°17' E 139°45'9 8.6
2015-Jan-25 09:33N 35°23' E 139°39'0 0.0
2015-Jan-25 08:33N 35°23' E 139°39'0 0.0
2015-Jan-25 07:33N 35°23' E 139°39'0 0.0
2015-Jan-25 06:33N 35°23' E 139°39'0 0.0
2015-Jan-25 05:33N 35°23' E 139°39'0 0.0
2015-Jan-25 04:33N 35°23' E 139°39'9 8.9
2015-Jan-25 03:34N 35°17' E 139°46'1414.3
2015-Jan-25 02:33N 35°02' E 139°45'1510.1
2015-Jan-25 01:06N 34°53' E 139°59'813.4
2015-Jan-25 00:29N 34°57' E 140°08'1313.5
2015-Jan-24 23:31N 35°04' E 140°22'11 0.3
2015-Jan-23 12:24N 34°57' E 140°12'1919.9
2015-Jan-23 11:28N 34°52' E 139°50'1618.0
2015-Jan-23 10:33N 35°08' E 139°45'1313.3
2015-Jan-23 09:34N 35°21' E 139°42'10 9.5
2015-Jan-23 08:34N 35°30' E 139°46'0 0.0
2015-Jan-23 07:32N 35°30' E 139°46'0 0.0
2015-Jan-23 06:32N 35°30' E 139°46'0 0.0
2015-Jan-23 05:26N 35°30' E 139°46'0 0.0
2015-Jan-23 04:32N 35°30' E 139°46'0 0.1
2015-Jan-23 03:33N 35°30' E 139°46'8 8.3
2015-Jan-23 02:33N 35°23' E 139°40'1 1.2
2015-Jan-23 01:30N 35°23' E 139°39'0 0.0
2015-Jan-23 00:33N 35°23' E 139°39'0 0.0
2015-Jan-22 23:33N 35°23' E 139°39'0 0.0
2015-Jan-22 22:33N 35°23' E 139°39'2 1.6
2015-Jan-22 21:33N 35°23' E 139°41'1212.5
2015-Jan-22 20:33N 35°11' E 139°46'1817.7
2015-Jan-22 19:33N 34°57' E 139°33'7 0.2
2015-Jan-21 11:34N 34°52' E 139°40'1817.9
2015-Jan-21 10:33N 35°10' E 139°46'1312.9
2015-Jan-21 09:33N 35°22' E 139°41'2 2.3
2015-Jan-21 08:32N 35°23' E 139°39'0 0.0
2015-Jan-21 07:32N 35°23' E 139°39'0 0.0
2015-Jan-21 06:32N 35°23' E 139°39'0 0.0
2015-Jan-21 05:32N 35°23' E 139°39'0 0.0
2015-Jan-21 04:32N 35°23' E 139°39'0 0.0
2015-Jan-21 03:32N 35°23' E 139°39'1 0.8
2015-Jan-21 02:34N 35°24' E 139°40'1212.4
2015-Jan-21 01:33N 35°12' E 139°47'1414.2
2015-Jan-21 00:34N 34°59' E 139°43'1312.6
2015-Jan-20 23:33N 34°49' E 139°53'3114.6
2015-Jan-20 21:28N 35°04' E 140°25'22 0.7
2015-Jan-19 11:33N 34°53' E 140°02'1616.4
2015-Jan-19 10:34N 34°57' E 139°43'1717.2
2015-Jan-19 09:33N 35°14' E 139°46'1313.1
2015-Jan-19 08:34N 35°27' E 139°46'3 3.3
2015-Jan-19 07:33N 35°30' E 139°46'0 0.0
2015-Jan-19 06:33N 35°30' E 139°46'0 0.0
2015-Jan-19 05:33N 35°30' E 139°46'0 0.0
2015-Jan-19 04:33N 35°30' E 139°46'0 0.0
2015-Jan-19 03:33N 35°30' E 139°46'0 0.0
2015-Jan-19 02:33N 35°30' E 139°46'7 7.1
2015-Jan-19 01:33N 35°24' E 139°42'2 2.3
2015-Jan-19 00:31N 35°23' E 139°39'0 0.0
2015-Jan-18 23:31N 35°23' E 139°39'0 0.0
2015-Jan-18 22:31N 35°23' E 139°39'4 4.6
2015-Jan-18 21:33N 35°20' E 139°43'1313.4
2015-Jan-18 20:33N 35°07' E 139°45'1818.1
2015-Jan-18 19:33N 34°51' E 139°36'12 0.4
2015-Jan-17 12:33N 34°40' E 139°41'1515.4
2015-Jan-17 11:33N 34°55' E 139°41'1817.6
2015-Jan-17 10:33N 35°12' E 139°46'  

Dump ship's entire track history